createdAt,value
2017-05-12T00:01:37.722Z,18.55
2017-05-12T00:04:06.077Z,19.55
2017-05-12T00:06:34.513Z,19.05
2017-05-12T00:09:02.943Z,20.93
2017-05-12T00:11:31.345Z,21.60
2017-05-12T00:14:00.111Z,20.53
2017-05-12T00:16:28.459Z,20.38
2017-05-12T00:18:57.655Z,20.72
2017-05-12T00:21:26.917Z,20.40
2017-05-12T00:23:55.278Z,21.98
2017-05-12T00:26:23.611Z,23.12
2017-05-12T00:28:51.965Z,22.40
2017-05-12T00:31:21.098Z,22.03
2017-05-12T00:33:50.872Z,21.85
2017-05-12T00:36:19.298Z,21.58
2017-05-12T00:38:48.972Z,23.50
2017-05-12T00:41:18.237Z,22.77
2017-05-12T00:43:46.697Z,21.13
2017-05-12T00:46:16.857Z,22.62
2017-05-12T00:48:47.063Z,23.52
2017-05-12T00:51:15.391Z,23.78
2017-05-12T00:53:49.288Z,22.33
2017-05-12T00:56:19.454Z,21.83
2017-05-12T00:58:48.998Z,21.42
2017-05-12T01:01:18.145Z,22.98
2017-05-12T01:03:46.641Z,21.80
2017-05-12T01:06:16.570Z,21.03
2017-05-12T01:08:45.579Z,23.62
2017-05-12T01:11:14.752Z,23.32
2017-05-12T01:13:43.151Z,23.85
2017-05-12T01:16:11.463Z,22.68
2017-05-12T01:18:41.339Z,23.12
2017-05-12T01:21:09.672Z,23.40
2017-05-12T01:23:37.989Z,23.05
2017-05-12T01:26:06.340Z,24.88
2017-05-12T01:28:35.647Z,24.88
2017-05-12T01:31:03.988Z,24.18
2017-05-12T01:33:32.321Z,24.77
2017-05-12T01:36:00.652Z,23.78
2017-05-12T01:38:29.059Z,25.08
2017-05-12T01:40:57.429Z,23.72
2017-05-12T01:43:25.945Z,26.13
2017-05-12T01:45:54.366Z,25.47
2017-05-12T01:48:22.686Z,24.45
2017-05-12T01:50:51.063Z,25.62
2017-05-12T01:53:19.958Z,25.33
2017-05-12T01:55:48.304Z,25.08
2017-05-12T01:58:16.792Z,23.18
2017-05-12T02:00:45.131Z,23.22
2017-05-12T02:03:14.956Z,25.17
2017-05-12T02:05:43.451Z,24.55
2017-05-12T02:08:11.781Z,26.50
2017-05-12T02:10:40.143Z,22.58
2017-05-12T02:13:08.508Z,27.85
2017-05-12T02:15:36.817Z,26.87
2017-05-12T02:18:05.209Z,26.60
2017-05-12T02:20:33.569Z,27.60
2017-05-12T02:23:01.895Z,26.65
2017-05-12T02:25:30.614Z,25.95
2017-05-12T02:27:59.865Z,26.33
2017-05-12T02:30:28.947Z,26.63
2017-05-12T02:32:57.362Z,25.18
2017-05-12T02:35:25.689Z,27.40
2017-05-12T02:37:54.779Z,27.65
2017-05-12T02:40:23.961Z,26.67
2017-05-12T02:42:52.326Z,28.47
2017-05-12T02:45:20.690Z,29.82
2017-05-12T02:47:49.056Z,28.18
2017-05-12T02:50:18.173Z,29.70
2017-05-12T02:52:46.571Z,28.43
2017-05-12T02:55:14.983Z,28.43
2017-05-12T02:57:43.312Z,26.10
2017-05-12T03:00:11.713Z,28.78
2017-05-12T03:02:40.052Z,28.20
2017-05-12T03:05:08.439Z,29.77
2017-05-12T03:07:36.927Z,29.97
2017-05-12T03:10:05.251Z,30.93
2017-05-12T03:12:33.570Z,31.17
2017-05-12T03:15:01.942Z,28.05
2017-05-12T03:17:30.278Z,30.07
2017-05-12T03:19:58.610Z,29.25
2017-05-12T03:22:26.971Z,30.33
2017-05-12T03:24:55.331Z,30.97
2017-05-12T03:27:24.416Z,29.70
2017-05-12T03:29:53.649Z,29.42
2017-05-12T03:32:22.029Z,29.00
2017-05-12T03:34:50.345Z,28.42
2017-05-12T03:37:18.688Z,29.43
2017-05-12T03:39:47.053Z,31.03
2017-05-12T03:42:15.369Z,30.40
2017-05-12T03:44:43.701Z,32.25
2017-05-12T03:47:12.037Z,30.17
2017-05-12T03:49:40.393Z,29.27
2017-05-12T03:52:08.759Z,32.63
2017-05-12T03:54:37.136Z,31.52
2017-05-12T03:57:05.450Z,31.60
2017-05-12T03:59:34.573Z,32.72
2017-05-12T04:02:04.870Z,32.72
2017-05-12T04:04:34.365Z,32.78
2017-05-12T04:07:02.933Z,33.42
2017-05-12T04:09:31.265Z,31.68
2017-05-12T04:11:59.643Z,31.83
2017-05-12T04:14:28.705Z,32.78
2017-05-12T04:16:57.037Z,31.38
2017-05-12T04:19:25.450Z,31.45
2017-05-12T04:21:53.743Z,31.25
2017-05-12T04:24:22.073Z,31.93
2017-05-12T04:26:50.522Z,30.95
2017-05-12T04:29:19.636Z,34.57
2017-05-12T04:31:47.994Z,33.60
2017-05-12T04:34:17.844Z,34.87
2017-05-12T04:36:46.140Z,32.43
2017-05-12T04:39:15.265Z,31.43
2017-05-12T04:41:43.669Z,32.10
2017-05-12T04:44:12.775Z,34.18
2017-05-12T04:46:44.371Z,31.72
2017-05-12T04:49:12.693Z,33.55
2017-05-12T04:51:41.203Z,35.08
2017-05-12T04:54:09.597Z,32.07
2017-05-12T04:56:37.944Z,32.50
2017-05-12T04:59:06.371Z,32.23
2017-05-12T05:01:34.692Z,31.85
2017-05-12T05:04:04.033Z,33.60
2017-05-12T05:06:32.453Z,31.22
2017-05-12T05:09:02.229Z,31.85
2017-05-12T05:11:33.479Z,33.53
2017-05-12T05:14:02.127Z,34.57
2017-05-12T05:16:30.500Z,33.67
2017-05-12T05:18:58.869Z,35.73
2017-05-12T05:21:28.029Z,32.32
2017-05-12T05:23:56.359Z,31.38
2017-05-12T05:26:24.745Z,31.35
2017-05-12T05:28:55.156Z,38.42
2017-05-12T05:31:23.482Z,40.32
2017-05-12T05:33:51.876Z,33.50
2017-05-12T05:36:20.214Z,33.03
2017-05-12T05:38:50.039Z,41.42
2017-05-12T05:41:18.397Z,33.37
2017-05-12T05:43:46.774Z,34.48
2017-05-12T05:46:15.725Z,32.72
2017-05-12T05:54:33.500Z,32.78
2017-05-12T05:57:02.100Z,33.53
2017-05-12T05:59:30.564Z,35.83
2017-05-12T06:01:59.736Z,33.63
2017-05-12T06:04:28.243Z,31.78
2017-05-12T06:06:57.503Z,32.15
2017-05-12T06:09:26.045Z,34.10
2017-05-12T06:11:54.436Z,33.15
2017-05-12T06:14:22.792Z,31.63
2017-05-12T06:16:52.225Z,40.08
2017-05-12T06:19:20.717Z,33.27
2017-05-12T06:21:49.876Z,36.17
2017-05-12T06:24:23.211Z,36.83
2017-05-12T06:26:51.713Z,42.90
2017-05-12T06:29:20.152Z,36.20
2017-05-12T06:31:48.620Z,34.08
2017-05-12T06:34:17.148Z,35.03
2017-05-12T06:36:45.640Z,32.65
2017-05-12T06:41:50.619Z,34.42
2017-05-12T06:44:23.837Z,31.53
2017-05-12T06:46:52.509Z,33.12
2017-05-12T06:49:20.965Z,32.08
2017-05-12T06:51:50.165Z,32.43
2017-05-12T06:54:20.081Z,33.87
2017-05-12T06:56:49.780Z,31.62
2017-05-12T06:59:29.092Z,29.08
2017-05-12T07:01:57.560Z,32.00
2017-05-12T07:04:28.208Z,32.80
2017-05-12T07:06:57.057Z,29.78
2017-05-12T07:09:25.440Z,31.62
2017-05-12T07:11:54.882Z,32.28
2017-05-12T07:14:23.563Z,30.78
2017-05-12T07:16:52.399Z,32.88
2017-05-12T07:19:20.757Z,29.63
2017-05-12T07:21:52.086Z,29.33
2017-05-12T07:24:20.486Z,30.45
2017-05-12T07:26:49.602Z,28.75
2017-05-12T07:29:21.948Z,31.20
2017-05-12T07:31:50.299Z,30.97
2017-05-12T07:34:18.973Z,30.25
2017-05-12T07:36:47.380Z,28.23
2017-05-12T07:39:16.511Z,28.18
2017-05-12T07:41:45.571Z,30.03
2017-05-12T07:44:14.991Z,28.68
2017-05-12T07:46:44.269Z,29.17
2017-05-12T07:49:14.053Z,29.37
2017-05-12T07:51:42.439Z,28.98
2017-05-12T07:54:10.852Z,31.47
2017-05-12T07:56:39.254Z,30.23
2017-05-12T07:59:07.745Z,27.78
2017-05-12T08:01:37.095Z,27.12
2017-05-12T08:04:06.106Z,28.28
2017-05-12T08:06:35.442Z,27.27
2017-05-12T08:09:03.989Z,26.37
2017-05-12T08:11:32.357Z,27.63
2017-05-12T08:14:01.683Z,27.85
2017-05-12T08:16:30.008Z,26.07
2017-05-12T08:18:58.352Z,26.25
2017-05-12T08:21:26.703Z,28.27
2017-05-12T08:23:55.207Z,28.82
2017-05-12T08:26:23.586Z,26.98
2017-05-12T08:28:53.689Z,27.40
2017-05-12T08:31:22.028Z,28.03
2017-05-12T08:33:50.343Z,26.98
2017-05-12T08:36:19.541Z,25.92
2017-05-12T08:38:48.688Z,24.52
2017-05-12T08:41:17.389Z,24.98
2017-05-12T08:43:46.734Z,24.68
2017-05-12T08:46:15.209Z,26.03
2017-05-12T08:48:46.150Z,27.52
2017-05-12T08:51:38.446Z,26.70
2017-05-12T08:54:07.790Z,23.83
2017-05-12T08:59:14.918Z,24.32
2017-05-12T09:01:46.037Z,24.83
2017-05-12T09:04:14.527Z,23.08
2017-05-12T09:06:43.867Z,22.93
2017-05-12T09:09:12.287Z,23.05
2017-05-12T09:11:40.630Z,23.63
2017-05-12T09:14:09.252Z,23.85
2017-05-12T09:16:38.421Z,23.75
2017-05-12T09:19:06.794Z,22.70
2017-05-12T09:21:36.164Z,22.13
2017-05-12T09:24:04.684Z,23.28
2017-05-12T09:26:33.992Z,21.98
2017-05-12T09:29:02.309Z,23.72
2017-05-12T09:31:30.974Z,21.95
2017-05-12T09:34:00.054Z,21.33
2017-05-12T09:36:29.229Z,21.92
2017-05-12T09:38:57.616Z,21.43
2017-05-12T09:41:26.034Z,19.77
2017-05-12T09:43:54.505Z,20.45
2017-05-12T09:46:23.597Z,20.70
2017-05-12T09:48:53.191Z,20.57
2017-05-12T09:51:21.570Z,19.70
2017-05-12T09:53:50.890Z,19.62
2017-05-12T09:56:20.105Z,18.15
2017-05-12T09:58:48.543Z,17.52
2017-05-12T10:01:16.965Z,18.30
2017-05-12T10:03:45.342Z,19.95
2017-05-12T10:06:14.485Z,19.48
2017-05-12T10:08:42.838Z,19.53
2017-05-12T10:14:11.961Z,15.63
2017-05-12T10:16:41.506Z,15.28
2017-05-12T10:19:09.874Z,15.17
2017-05-12T10:21:38.233Z,16.05
2017-05-12T10:24:07.042Z,15.65
2017-05-12T10:26:36.062Z,14.53
2017-05-12T10:29:05.203Z,15.25
2017-05-12T10:31:54.313Z,13.25
2017-05-12T10:36:55.801Z,11.02
2017-05-12T10:39:25.061Z,11.58
2017-05-12T10:41:53.411Z,11.07
2017-05-12T10:44:22.003Z,11.53
2017-05-12T10:46:52.467Z,11.17
2017-05-12T10:49:22.807Z,10.44
2017-05-12T10:51:51.902Z,9.82
2017-05-12T10:54:20.530Z,8.94
2017-05-12T10:56:48.875Z,9.16
2017-05-12T10:59:17.932Z,7.42
2017-05-12T11:01:48.807Z,9.64
2017-05-12T11:04:17.403Z,7.88
2017-05-12T11:06:45.848Z,8.72
2017-05-12T11:09:14.982Z,8.12
2017-05-12T11:11:43.402Z,9.22
2017-05-12T11:14:12.980Z,8.90
2017-05-12T11:16:41.594Z,8.14
2017-05-12T11:19:10.805Z,7.02
2017-05-12T11:21:40.501Z,8.40
2017-05-12T11:24:09.711Z,8.40
2017-05-12T11:26:38.792Z,7.80
2017-05-12T11:29:07.182Z,7.16
2017-05-12T11:31:36.279Z,8.18
2017-05-12T11:34:09.443Z,6.38
2017-05-12T11:36:37.795Z,6.68
2017-05-12T11:39:06.263Z,7.00
2017-05-12T11:41:36.537Z,6.04
2017-05-12T11:44:09.452Z,7.52
2017-05-12T11:46:37.978Z,7.50
2017-05-12T11:49:09.105Z,7.52
2017-05-12T11:51:40.494Z,7.50
2017-05-12T11:54:08.999Z,7.70
2017-05-12T11:56:39.521Z,7.04
2017-05-12T11:59:09.638Z,8.10
2017-05-12T12:01:38.586Z,7.88
2017-05-12T12:04:08.114Z,8.44
2017-05-12T12:06:36.660Z,8.24
2017-05-12T12:09:10.197Z,6.32
2017-05-12T12:11:38.738Z,6.66
2017-05-12T12:14:08.142Z,7.16
2017-05-12T12:16:39.612Z,6.84
2017-05-12T12:19:08.254Z,7.88
2017-05-12T12:21:36.673Z,6.84
2017-05-12T12:24:05.607Z,7.52
2017-05-12T12:26:36.878Z,5.66
2017-05-12T12:29:05.222Z,7.14
2017-05-12T12:31:34.419Z,6.32
2017-05-12T12:34:02.870Z,6.76
2017-05-12T12:36:31.228Z,6.76
2017-05-12T12:39:04.617Z,7.30
2017-05-12T12:41:33.800Z,7.74
2017-05-12T12:44:03.155Z,8.02
2017-05-12T12:46:31.553Z,8.02
2017-05-12T12:49:01.693Z,7.36
2017-05-12T12:51:33.788Z,8.40
2017-05-12T12:54:05.022Z,7.76
2017-05-12T12:56:34.732Z,7.70
2017-05-12T12:59:03.533Z,8.24
2017-05-12T13:01:34.847Z,8.52
2017-05-12T13:04:03.235Z,8.34
2017-05-12T13:06:33.815Z,7.76
2017-05-12T13:09:02.293Z,9.48
2017-05-12T13:11:31.076Z,9.44
2017-05-12T13:13:59.454Z,8.48
2017-05-12T13:16:28.102Z,9.20
2017-05-12T13:19:03.903Z,9.80
2017-05-12T13:21:33.965Z,9.84
2017-05-12T13:26:40.917Z,9.92
2017-05-12T13:29:11.441Z,11.04
2017-05-12T13:31:39.899Z,9.66
2017-05-12T13:34:08.464Z,8.92
2017-05-12T13:36:38.832Z,9.32
2017-05-12T13:39:07.220Z,9.35
2017-05-12T13:41:35.590Z,9.62
2017-05-12T13:44:04.791Z,9.98
2017-05-12T13:46:33.305Z,10.05
2017-05-12T13:49:04.772Z,10.78
2017-05-12T13:51:34.276Z,9.80
2017-05-12T13:54:02.656Z,10.65
2017-05-12T13:56:33.513Z,9.40
2017-05-12T13:59:03.369Z,9.30
2017-05-12T14:01:31.798Z,9.28
2017-05-12T14:04:00.902Z,9.72
2017-05-12T14:06:30.053Z,9.02
2017-05-12T14:08:59.441Z,8.67
2017-05-12T14:11:29.889Z,9.75
2017-05-12T14:13:58.477Z,8.67
2017-05-12T14:16:27.669Z,9.95
2017-05-12T14:18:56.867Z,7.62
2017-05-12T14:21:25.379Z,8.03
2017-05-12T14:23:55.830Z,8.62
2017-05-12T14:26:24.966Z,8.55
2017-05-12T14:28:55.287Z,7.98
2017-05-12T14:31:23.929Z,8.00
2017-05-12T14:33:53.370Z,7.63
2017-05-12T14:36:22.909Z,7.90
2017-05-12T14:38:53.032Z,7.43
2017-05-12T14:41:21.402Z,7.83
2017-05-12T14:43:50.719Z,7.60
2017-05-12T14:46:20.184Z,7.28
2017-05-12T14:48:48.693Z,6.65
2017-05-12T14:51:19.142Z,7.00
2017-05-12T14:53:48.222Z,6.73
2017-05-12T14:56:20.235Z,7.28
2017-05-12T14:58:52.359Z,7.32
2017-05-12T15:01:21.660Z,7.05
2017-05-12T15:03:51.771Z,6.45
2017-05-12T15:06:20.206Z,6.32
2017-05-12T15:08:48.672Z,7.62
2017-05-12T15:11:17.113Z,7.15
2017-05-12T15:13:51.923Z,6.32
2017-05-12T15:16:20.312Z,6.07
2017-05-12T15:21:26.276Z,6.27
2017-05-12T15:23:55.475Z,8.53
2017-05-12T15:26:24.741Z,6.28
2017-05-12T15:28:53.073Z,7.57
2017-05-12T15:31:22.145Z,7.17
2017-05-12T15:33:50.552Z,7.55
2017-05-12T15:36:18.900Z,7.13
2017-05-12T15:38:47.356Z,6.83
2017-05-12T15:41:15.810Z,7.52
2017-05-12T15:43:44.265Z,6.70
2017-05-12T15:46:12.700Z,8.04
2017-05-12T15:48:41.168Z,7.06
2017-05-12T15:51:09.485Z,7.18
2017-05-12T15:53:39.128Z,7.58
2017-05-12T15:56:07.485Z,6.70
2017-05-12T15:58:36.596Z,7.66
2017-05-12T16:01:05.497Z,7.42
2017-05-12T16:03:34.684Z,7.55
2017-05-12T16:06:04.189Z,7.03
2017-05-12T16:08:32.636Z,7.93
2017-05-12T16:11:01.044Z,8.72
2017-05-12T16:13:29.447Z,8.18
2017-05-12T16:15:58.401Z,7.88
2017-05-12T16:18:26.930Z,8.27
2017-05-12T16:20:55.309Z,7.88
2017-05-12T16:23:26.191Z,7.25
2017-05-12T16:25:56.554Z,9.78
2017-05-12T16:28:24.994Z,7.90
2017-05-12T16:30:54.821Z,8.67
2017-05-12T16:33:23.185Z,8.95
2017-05-12T16:35:54.255Z,8.27
2017-05-12T16:38:23.491Z,9.18
2017-05-12T16:40:51.927Z,8.20
2017-05-12T16:43:20.341Z,11.63
2017-05-12T16:45:48.815Z,7.93
2017-05-12T16:48:17.136Z,9.67
2017-05-12T16:50:45.521Z,11.08
2017-05-12T16:53:13.985Z,9.37
2017-05-12T16:55:43.105Z,10.03
